createdAt,value
2022-07-25T00:02:12.258Z,61.89
2022-07-25T00:04:42.391Z,62.03
2022-07-25T00:07:10.711Z,62.51
2022-07-25T00:09:38.643Z,61.66
2022-07-25T00:12:08.887Z,62.13
2022-07-25T00:14:39.340Z,62.13
2022-07-25T00:17:07.297Z,62.42
2022-07-25T00:19:35.249Z,61.72
2022-07-25T00:22:03.614Z,61.80
2022-07-25T00:24:31.579Z,62.70
2022-07-25T00:26:59.703Z,62.93
2022-07-25T00:29:29.131Z,63.10
2022-07-25T00:31:57.035Z,64.04
2022-07-25T00:34:25.295Z,64.18
2022-07-25T00:36:53.327Z,63.83
2022-07-25T00:39:21.330Z,64.27
2022-07-25T00:41:49.340Z,63.10
2022-07-25T00:44:25.114Z,63.86
2022-07-25T00:46:54.761Z,63.99
2022-07-25T00:49:23.517Z,63.79
2022-07-25T00:51:52.289Z,64.46
2022-07-25T00:54:20.809Z,63.88
2022-07-25T00:56:49.752Z,63.53
2022-07-25T00:59:17.741Z,63.39
2022-07-25T01:01:48.437Z,63.06
2022-07-25T01:04:18.435Z,63.01
2022-07-25T01:06:46.486Z,63.45
2022-07-25T01:09:14.676Z,64.12
2022-07-25T01:11:42.811Z,65.26
2022-07-25T01:14:10.751Z,65.41
2022-07-25T01:16:40.974Z,66.42
2022-07-25T01:19:10.199Z,66.39
2022-07-25T01:21:40.885Z,65.60
2022-07-25T01:24:09.733Z,66.39
2022-07-25T01:26:38.164Z,66.21
2022-07-25T01:29:06.866Z,65.16
2022-07-25T01:31:35.081Z,66.37
2022-07-25T01:34:03.648Z,68.50
2022-07-25T01:36:31.908Z,68.73
2022-07-25T01:39:01.817Z,67.99
2022-07-25T01:41:30.266Z,66.94
2022-07-25T01:43:58.634Z,66.89
2022-07-25T01:46:26.752Z,66.34
2022-07-25T01:48:54.829Z,65.88
2022-07-25T01:51:22.829Z,65.35
2022-07-25T01:53:54.539Z,65.29
2022-07-25T01:56:23.745Z,65.40
2022-07-25T01:58:51.855Z,64.72
2022-07-25T02:01:22.024Z,65.00
2022-07-25T02:03:51.446Z,64.67
2022-07-25T02:06:20.817Z,64.73
2022-07-25T02:08:49.955Z,64.42
2022-07-25T02:11:18.195Z,64.80
2022-07-25T02:13:47.842Z,64.92
2022-07-25T02:16:16.083Z,65.06
2022-07-25T02:18:44.310Z,66.00
2022-07-25T02:21:14.579Z,67.00
2022-07-25T02:23:43.609Z,67.03
2022-07-25T02:26:12.116Z,68.25
2022-07-25T02:28:40.598Z,68.91
2022-07-25T02:31:10.441Z,68.45
2022-07-25T02:33:38.899Z,69.00
2022-07-25T02:36:07.654Z,69.77
2022-07-25T02:38:36.008Z,69.50
2022-07-25T02:41:04.721Z,70.00
2022-07-25T02:43:32.650Z,70.51
2022-07-25T02:46:00.988Z,71.63
2022-07-25T02:48:30.465Z,72.03
2022-07-25T02:50:58.517Z,72.47
2022-07-25T02:53:47.143Z,72.04
2022-07-25T02:56:14.315Z,71.53
2022-07-25T02:58:42.841Z,71.32
2022-07-25T03:01:11.311Z,72.58
2022-07-25T03:03:40.747Z,72.37
2022-07-25T03:06:08.799Z,72.27
2022-07-25T03:08:36.752Z,69.44
2022-07-25T03:11:05.030Z,69.05
2022-07-25T03:13:34.111Z,69.82
2022-07-25T03:16:02.168Z,70.73
2022-07-25T03:18:30.077Z,71.18
2022-07-25T03:21:00.274Z,71.39
2022-07-25T03:23:28.460Z,72.09
2022-07-25T03:25:57.108Z,72.64
2022-07-25T03:28:25.326Z,72.55
2022-07-25T03:30:53.940Z,72.78
2022-07-25T03:33:22.024Z,71.72
2022-07-25T03:35:50.249Z,73.74
2022-07-25T03:38:19.676Z,73.32
2022-07-25T03:40:47.815Z,73.62
2022-07-25T03:43:15.742Z,73.20
2022-07-25T03:45:44.091Z,74.16
2022-07-25T03:48:12.507Z,74.46
2022-07-25T03:50:40.519Z,73.92
2022-07-25T03:53:10.191Z,74.18
2022-07-25T03:55:40.745Z,74.22
2022-07-25T03:58:09.000Z,74.08
2022-07-25T04:00:37.585Z,74.11
2022-07-25T04:03:05.734Z,73.90
2022-07-25T04:05:34.095Z,74.51
2022-07-25T04:08:02.009Z,74.85
2022-07-25T04:10:30.006Z,73.99
2022-07-25T04:12:59.400Z,73.57
2022-07-25T04:15:27.607Z,73.98
2022-07-25T04:17:57.420Z,74.37
2022-07-25T04:20:25.532Z,74.93
2022-07-25T04:22:53.598Z,75.22
2022-07-25T04:25:21.747Z,75.93
2022-07-25T04:27:49.814Z,75.55
2022-07-25T04:30:24.381Z,75.17
2022-07-25T04:32:53.494Z,75.77
2022-07-25T04:35:21.731Z,75.52
2022-07-25T04:37:50.335Z,76.24
2022-07-25T04:40:18.402Z,75.90
2022-07-25T04:42:46.643Z,76.08
2022-07-25T04:45:17.603Z,75.79
2022-07-25T04:47:48.154Z,75.76
2022-07-25T04:50:18.805Z,76.55
2022-07-25T04:52:50.112Z,76.27
2022-07-25T04:55:18.101Z,75.50
2022-07-25T04:57:47.082Z,74.85
2022-07-25T05:00:15.852Z,74.89
2022-07-25T05:02:44.936Z,74.80
2022-07-25T05:05:21.203Z,75.28
2022-07-25T05:07:51.024Z,75.17
2022-07-25T05:10:19.118Z,75.26
2022-07-25T05:12:47.457Z,75.87
2022-07-25T05:15:16.069Z,75.78
2022-07-25T05:17:44.830Z,75.16
2022-07-25T05:20:15.230Z,73.54
2022-07-25T05:22:43.779Z,73.05
2022-07-25T05:25:12.584Z,72.34
2022-07-25T05:27:41.042Z,70.89
2022-07-25T05:30:11.183Z,71.24
2022-07-25T05:32:40.304Z,72.04
2022-07-25T05:35:10.348Z,70.34
2022-07-25T05:37:39.876Z,70.06
2022-07-25T05:40:08.540Z,70.14
2022-07-25T05:42:36.498Z,70.34
2022-07-25T05:45:05.102Z,70.32
2022-07-25T05:47:33.203Z,69.57
2022-07-25T05:50:02.769Z,69.40
2022-07-25T05:52:31.447Z,69.08
2022-07-25T05:55:01.711Z,68.76
2022-07-25T05:57:29.927Z,68.26
2022-07-25T05:59:58.019Z,67.67
2022-07-25T06:02:26.627Z,67.84
2022-07-25T06:04:54.839Z,68.41
2022-07-25T06:07:22.790Z,68.35
2022-07-25T06:09:50.823Z,67.69
2022-07-25T06:12:20.224Z,66.94
2022-07-25T06:14:52.348Z,66.76
2022-07-25T06:17:20.362Z,66.68
2022-07-25T06:19:48.347Z,65.87
2022-07-25T06:22:16.439Z,66.31
2022-07-25T06:24:44.468Z,66.15
2022-07-25T06:27:14.969Z,65.87
2022-07-25T06:29:47.998Z,65.82
2022-07-25T06:32:16.135Z,66.21
2022-07-25T06:34:44.076Z,66.39
2022-07-25T06:37:12.098Z,65.29
2022-07-25T06:39:43.842Z,66.14
2022-07-25T06:42:13.531Z,65.29
2022-07-25T06:44:41.598Z,66.36
2022-07-25T06:47:13.077Z,65.30
2022-07-25T06:49:41.092Z,65.77
2022-07-25T06:52:09.810Z,66.23
2022-07-25T06:54:37.752Z,65.98
2022-07-25T06:57:06.063Z,65.52
2022-07-25T06:59:34.294Z,65.33
2022-07-25T07:02:02.295Z,65.44
2022-07-25T07:04:31.568Z,65.76
2022-07-25T07:06:59.429Z,64.60
2022-07-25T07:09:27.428Z,65.35
2022-07-25T07:11:55.374Z,64.25
2022-07-25T07:14:23.388Z,64.82
2022-07-25T07:16:51.562Z,64.53
2022-07-25T07:19:19.667Z,64.16
2022-07-25T07:21:51.598Z,63.78
2022-07-25T07:24:24.303Z,62.43
2022-07-25T07:26:53.536Z,62.58
2022-07-25T07:29:21.979Z,62.58
2022-07-25T07:31:50.066Z,62.15
2022-07-25T07:34:18.193Z,61.23
2022-07-25T07:36:46.772Z,60.18
2022-07-25T07:39:17.197Z,60.41
2022-07-25T07:41:45.416Z,60.21
2022-07-25T07:44:13.413Z,59.70
2022-07-25T07:46:41.440Z,59.62
2022-07-25T07:49:12.567Z,58.50
2022-07-25T07:51:41.209Z,58.29
2022-07-25T07:54:26.461Z,59.10
2022-07-25T07:56:55.870Z,58.90
2022-07-25T07:59:23.881Z,57.54
2022-07-25T08:01:52.796Z,56.82
2022-07-25T08:04:22.236Z,55.30
2022-07-25T08:06:50.475Z,54.86
2022-07-25T08:09:18.633Z,54.88
2022-07-25T08:11:46.770Z,54.68
2022-07-25T08:14:16.164Z,54.81
2022-07-25T08:16:44.582Z,54.15
2022-07-25T08:19:13.202Z,53.66
2022-07-25T08:21:41.264Z,51.81
2022-07-25T08:24:10.568Z,52.09
2022-07-25T08:26:40.242Z,52.10
2022-07-25T08:29:28.000Z,51.71
2022-07-25T08:31:57.959Z,52.30
2022-07-25T08:34:26.033Z,52.56
2022-07-25T08:36:54.776Z,51.95
2022-07-25T08:39:22.833Z,51.59
2022-07-25T08:41:52.139Z,51.63
2022-07-25T08:44:21.592Z,51.39
2022-07-25T08:46:50.890Z,51.50
2022-07-25T08:49:21.542Z,50.81
2022-07-25T08:51:51.608Z,52.00
2022-07-25T08:54:19.970Z,51.55
2022-07-25T08:56:50.847Z,51.69
2022-07-25T08:59:19.301Z,51.34
2022-07-25T09:01:47.503Z,50.95
2022-07-25T09:04:15.841Z,50.12
2022-07-25T09:06:52.380Z,50.03
2022-07-25T09:09:20.587Z,49.30
2022-07-25T09:11:50.032Z,48.43
2022-07-25T09:14:18.160Z,48.78
2022-07-25T09:16:47.234Z,48.33
2022-07-25T09:19:18.428Z,47.43
2022-07-25T09:21:58.356Z,47.67
2022-07-25T09:24:32.650Z,47.04
2022-07-25T09:27:03.216Z,46.96
2022-07-25T09:29:33.177Z,46.89
2022-07-25T09:32:03.443Z,46.71
2022-07-25T09:34:34.789Z,45.08
2022-07-25T09:37:04.142Z,45.63
2022-07-25T09:39:46.522Z,44.64
2022-07-25T09:42:21.155Z,45.22
2022-07-25T09:45:05.568Z,43.29
2022-07-25T09:47:36.280Z,43.71
2022-07-25T09:50:05.442Z,43.45
2022-07-25T09:52:34.524Z,42.77
2022-07-25T09:55:06.414Z,42.25
2022-07-25T09:57:34.499Z,41.14
2022-07-25T10:00:03.489Z,41.22
2022-07-25T10:02:50.311Z,40.17
2022-07-25T10:05:29.842Z,39.23
2022-07-25T10:07:59.754Z,36.94
2022-07-25T10:10:32.268Z,34.65
2022-07-25T10:13:10.328Z,34.58
2022-07-25T10:15:50.266Z,33.58
2022-07-25T10:18:20.321Z,33.74
2022-07-25T10:20:51.231Z,30.19
2022-07-25T10:23:21.692Z,29.53
2022-07-25T10:26:02.946Z,29.10
2022-07-25T10:28:43.355Z,29.38
2022-07-25T10:31:21.734Z,28.97
2022-07-25T10:33:57.692Z,28.86
2022-07-25T10:36:28.763Z,28.95
2022-07-25T10:39:02.701Z,30.05
2022-07-25T10:41:32.800Z,31.66
2022-07-25T10:44:03.203Z,32.67
2022-07-25T10:46:36.683Z,31.51
2022-07-25T10:49:06.850Z,31.07
2022-07-25T10:51:41.588Z,31.98
2022-07-25T10:54:15.032Z,31.03
2022-07-25T10:56:55.359Z,30.61
2022-07-25T10:59:32.924Z,29.48
2022-07-25T11:02:01.649Z,30.22
2022-07-25T11:04:30.410Z,30.80
2022-07-25T11:06:58.564Z,33.06
2022-07-25T11:09:29.186Z,33.84
2022-07-25T11:12:00.317Z,33.99
2022-07-25T11:14:32.842Z,34.13
2022-07-25T11:17:15.876Z,32.80
2022-07-25T11:19:45.505Z,34.67
2022-07-25T11:22:13.622Z,33.29
2022-07-25T11:24:43.672Z,29.85
2022-07-25T11:27:21.380Z,29.23
2022-07-25T11:29:49.971Z,32.21
2022-07-25T11:32:18.946Z,31.75
2022-07-25T11:34:50.944Z,33.53
2022-07-25T11:37:21.215Z,32.13
2022-07-25T11:39:56.274Z,32.64
2022-07-25T11:42:29.188Z,33.64
2022-07-25T11:44:57.519Z,34.42
2022-07-25T11:47:28.813Z,33.63
2022-07-25T11:49:59.416Z,34.87
2022-07-25T11:52:31.142Z,35.37
2022-07-25T11:55:01.309Z,35.59
2022-07-25T11:57:32.646Z,34.43
2022-07-25T12:00:02.924Z,33.31
2022-07-25T12:02:37.657Z,30.26
2022-07-25T12:05:08.410Z,29.98
2022-07-25T12:07:38.628Z,29.85
2022-07-25T12:10:08.962Z,28.98
2022-07-25T12:12:48.761Z,27.84
2022-07-25T12:15:19.124Z,29.66
2022-07-25T12:17:47.581Z,28.56
2022-07-25T12:20:17.391Z,30.01
2022-07-25T12:22:46.256Z,31.67
2022-07-25T12:25:14.506Z,32.83
2022-07-25T12:27:43.560Z,33.92
2022-07-25T12:30:14.797Z,35.09
2022-07-25T12:32:43.471Z,34.40
2022-07-25T12:35:14.636Z,35.67
2022-07-25T12:37:43.860Z,34.54
2022-07-25T12:40:14.395Z,35.50
2022-07-25T12:42:43.051Z,34.38
2022-07-25T12:45:14.667Z,34.17
2022-07-25T12:47:44.560Z,34.30
2022-07-25T12:50:13.492Z,32.69
2022-07-25T12:52:41.931Z,34.33
2022-07-25T12:55:13.461Z,35.41
2022-07-25T12:57:41.756Z,35.71
2022-07-25T13:00:14.629Z,36.20
2022-07-25T13:02:43.059Z,36.03
2022-07-25T13:05:14.349Z,35.10
2022-07-25T13:07:42.696Z,35.39
2022-07-25T13:10:12.727Z,35.02
2022-07-25T13:12:40.917Z,35.06
2022-07-25T13:15:09.720Z,35.83
2022-07-25T13:17:40.336Z,35.96
2022-07-25T13:20:09.960Z,36.00
2022-07-25T13:22:38.942Z,35.97
2022-07-25T13:25:07.587Z,36.18
2022-07-25T13:27:36.246Z,36.27
2022-07-25T13:30:04.559Z,36.71
2022-07-25T13:32:33.435Z,34.83
2022-07-25T13:35:02.810Z,34.48
2022-07-25T13:37:31.186Z,34.96
2022-07-25T13:39:59.488Z,36.15
2022-07-25T13:42:27.603Z,36.33
2022-07-25T13:44:55.624Z,37.32
2022-07-25T13:47:28.435Z,36.76
2022-07-25T13:49:59.830Z,36.83
2022-07-25T13:52:29.639Z,36.00
2022-07-25T13:54:58.454Z,33.62
2022-07-25T13:57:26.581Z,31.96
2022-07-25T13:59:55.495Z,31.77
2022-07-25T14:02:23.744Z,31.50
2022-07-25T14:04:52.451Z,31.82
2022-07-25T14:07:20.625Z,33.08
2022-07-25T14:09:50.351Z,34.14
2022-07-25T14:12:18.516Z,34.35
2022-07-25T14:14:46.531Z,34.20
2022-07-25T14:17:14.602Z,34.25
2022-07-25T14:19:43.593Z,35.39
2022-07-25T14:22:11.514Z,35.15
2022-07-25T14:24:39.845Z,34.37
2022-07-25T14:27:10.508Z,34.11
2022-07-25T14:29:39.009Z,33.70
2022-07-25T14:32:08.338Z,33.88
2022-07-25T14:34:37.899Z,34.02
2022-07-25T14:37:06.729Z,34.08
2022-07-25T14:39:36.378Z,34.67
2022-07-25T14:42:04.665Z,34.63
2022-07-25T14:44:34.264Z,34.83
2022-07-25T14:47:11.864Z,35.21
2022-07-25T14:49:41.215Z,35.43
2022-07-25T14:52:11.721Z,36.44
2022-07-25T14:54:41.283Z,36.61
2022-07-25T14:57:10.137Z,36.68
2022-07-25T14:59:39.763Z,36.75
2022-07-25T15:02:08.228Z,35.32
2022-07-25T15:04:36.336Z,36.09
2022-07-25T15:07:04.497Z,35.63
2022-07-25T15:09:32.700Z,35.99
2022-07-25T15:12:00.633Z,35.52
2022-07-25T15:14:29.603Z,36.11
2022-07-25T15:16:59.629Z,35.13
2022-07-25T15:19:28.054Z,35.66
2022-07-25T15:21:56.251Z,34.83
2022-07-25T15:24:28.965Z,35.35
2022-07-25T15:26:58.003Z,36.25
2022-07-25T15:29:27.804Z,36.41
2022-07-25T15:31:55.869Z,36.40
2022-07-25T15:34:25.770Z,36.28
2022-07-25T15:36:56.143Z,35.05
2022-07-25T15:39:24.476Z,34.87
2022-07-25T15:41:52.485Z,34.93
2022-07-25T15:44:20.907Z,35.33
2022-07-25T15:46:49.140Z,36.00
2022-07-25T15:49:18.726Z,35.49
2022-07-25T15:51:48.282Z,35.53
2022-07-25T15:54:16.278Z,36.47
2022-07-25T15:56:44.244Z,37.61
2022-07-25T15:59:12.315Z,38.01
2022-07-25T16:01:41.044Z,38.24
2022-07-25T16:04:09.511Z,38.86
2022-07-25T16:06:37.671Z,38.92
2022-07-25T16:09:07.777Z,39.10
2022-07-25T16:11:38.276Z,39.33
2022-07-25T16:14:06.427Z,39.69
2022-07-25T16:16:34.855Z,39.28
2022-07-25T16:19:03.544Z,38.53
2022-07-25T16:21:31.861Z,38.98
2022-07-25T16:24:00.095Z,39.28
2022-07-25T16:26:29.373Z,38.94
2022-07-25T16:28:58.447Z,39.01
2022-07-25T16:31:27.685Z,38.75
2022-07-25T16:33:55.733Z,38.74
2022-07-25T16:36:25.333Z,37.78
2022-07-25T16:38:53.674Z,37.71
2022-07-25T16:41:22.404Z,37.98
2022-07-25T16:43:51.819Z,37.37
2022-07-25T16:46:19.841Z,36.37
2022-07-25T16:48:48.776Z,35.72
2022-07-25T16:51:17.937Z,35.51
2022-07-25T16:53:46.134Z,36.17
2022-07-25T16:56:14.628Z,36.22
2022-07-25T16:58:42.787Z,36.08
2022-07-25T17:01:11.955Z,36.18
2022-07-25T17:03:40.479Z,36.47
2022-07-25T17:06:09.404Z,35.40
2022-07-25T17:08:38.723Z,34.70
2022-07-25T17:11:07.952Z,34.88
2022-07-25T17:13:36.513Z,35.02
2022-07-25T17:16:05.917Z,35.47
2022-07-25T17:18:38.069Z,36.23
2022-07-25T17:21:06.838Z,36.66
2022-07-25T17:23:35.964Z,37.39
2022-07-25T17:26:06.279Z,37.81
2022-07-25T17:28:34.485Z,37.98
2022-07-25T17:31:02.987Z,37.71
2022-07-25T17:33:31.359Z,38.12
2022-07-25T17:36:01.371Z,38.47
2022-07-25T17:38:34.879Z,38.25
2022-07-25T17:41:03.593Z,38.01
2022-07-25T17:43:31.534Z,38.82
2022-07-25T17:45:59.928Z,39.22
2022-07-25T17:48:28.780Z,38.71
2022-07-25T17:50:56.983Z,39.02
2022-07-25T17:53:27.010Z,37.98
2022-07-25T17:55:55.174Z,37.92
2022-07-25T17:58:25.790Z,38.64
2022-07-25T18:00:58.206Z,39.09
2022-07-25T18:03:30.493Z,39.00
2022-07-25T18:05:59.534Z,39.36
2022-07-25T18:08:32.989Z,39.85
2022-07-25T18:11:01.789Z,40.20
2022-07-25T18:13:30.893Z,40.86
2022-07-25T18:15:59.199Z,40.77
2022-07-25T18:18:49.768Z,41.12
2022-07-25T18:21:19.278Z,41.68
2022-07-25T18:23:48.964Z,40.95
2022-07-25T18:26:18.638Z,42.20
2022-07-25T18:28:47.596Z,41.78
2022-07-25T18:31:15.562Z,42.27
2022-07-25T18:33:43.686Z,41.95
2022-07-25T18:36:11.781Z,42.26
2022-07-25T18:38:39.947Z,42.61
2022-07-25T18:41:28.556Z,42.78
2022-07-25T18:44:03.253Z,42.30
2022-07-25T18:46:32.892Z,42.61
2022-07-25T18:49:02.259Z,42.88
2022-07-25T18:51:30.346Z,43.62
2022-07-25T18:53:58.216Z,42.58
2022-07-25T18:56:27.544Z,42.65
2022-07-25T18:58:55.907Z,43.22
2022-07-25T19:01:25.248Z,42.99
2022-07-25T19:03:57.090Z,43.00
2022-07-25T19:06:26.599Z,43.46
2022-07-25T19:08:54.651Z,43.55
2022-07-25T19:11:22.657Z,43.94
2022-07-25T19:13:52.029Z,43.98
2022-07-25T19:16:20.812Z,44.09
2022-07-25T19:18:52.531Z,44.35
2022-07-25T19:21:22.003Z,44.87
2022-07-25T19:23:51.512Z,45.12
2022-07-25T19:26:20.072Z,45.53
2022-07-25T19:28:48.568Z,45.45
2022-07-25T19:31:18.551Z,45.99
2022-07-25T19:33:47.444Z,46.51
2022-07-25T19:36:15.882Z,46.61
2022-07-25T19:38:43.884Z,46.09
2022-07-25T19:41:12.006Z,45.69
2022-07-25T19:43:40.309Z,45.73
2022-07-25T19:46:08.281Z,46.13
2022-07-25T19:48:38.336Z,46.36
2022-07-25T19:51:06.867Z,46.34
2022-07-25T19:53:34.836Z,46.16
2022-07-25T19:56:03.057Z,46.44
2022-07-25T19:58:34.215Z,47.27
2022-07-25T20:01:06.571Z,47.03
2022-07-25T20:03:35.553Z,46.99
2022-07-25T20:06:08.299Z,46.95
2022-07-25T20:08:36.733Z,47.39
2022-07-25T20:11:05.877Z,47.89
2022-07-25T20:13:34.042Z,47.90
2022-07-25T20:16:04.071Z,47.00
2022-07-25T20:18:34.984Z,46.71
2022-07-25T20:21:04.573Z,46.84
2022-07-25T20:23:32.846Z,46.28
2022-07-25T20:26:02.405Z,46.33
2022-07-25T20:28:30.951Z,46.72
2022-07-25T20:31:01.810Z,47.00
2022-07-25T20:33:29.933Z,46.65
2022-07-25T20:35:58.337Z,47.13
2022-07-25T20:38:31.027Z,47.08
2022-07-25T20:40:59.281Z,47.26
2022-07-25T20:43:28.568Z,47.09
2022-07-25T20:45:57.449Z,47.93
2022-07-25T20:48:26.350Z,48.37
2022-07-25T20:50:54.509Z,48.54
2022-07-25T20:53:22.533Z,49.01
2022-07-25T20:55:52.225Z,49.05
2022-07-25T20:58:21.125Z,49.06
2022-07-25T21:00:49.973Z,49.32
2022-07-25T21:03:18.011Z,49.39
2022-07-25T21:05:46.194Z,49.75
2022-07-25T21:08:15.342Z,49.98
2022-07-25T21:10:44.121Z,50.07
2022-07-25T21:13:13.525Z,50.60
2022-07-25T21:15:46.456Z,50.92
2022-07-25T21:18:14.291Z,51.07
2022-07-25T21:20:42.343Z,51.14
2022-07-25T21:23:11.459Z,51.14
2022-07-25T21:25:39.404Z,51.18
2022-07-25T21:28:07.723Z,51.65
2022-07-25T21:30:37.465Z,51.86
2022-07-25T21:33:05.866Z,51.82
2022-07-25T21:35:50.573Z,51.93
2022-07-25T21:38:26.766Z,52.31
2022-07-25T21:40:55.775Z,52.17
2022-07-25T21:43:23.866Z,52.49
2022-07-25T21:45:53.269Z,52.37
2022-07-25T21:48:43.094Z,52.71
2022-07-25T21:51:19.296Z,53.22
2022-07-25T21:53:51.459Z,53.23
2022-07-25T21:56:20.030Z,53.10
2022-07-25T21:58:48.110Z,53.31
2022-07-25T22:01:20.577Z,53.39
2022-07-25T22:03:48.805Z,53.57
2022-07-25T22:06:16.820Z,53.30
2022-07-25T22:08:44.729Z,53.61
2022-07-25T22:11:35.792Z,53.62
2022-07-25T22:14:01.195Z,53.91
2022-07-25T22:16:30.835Z,53.80
2022-07-25T22:18:59.703Z,53.91
2022-07-25T22:21:29.101Z,53.80
2022-07-25T22:23:56.985Z,53.86
2022-07-25T22:26:24.936Z,53.79
2022-07-25T22:28:53.390Z,54.20
2022-07-25T22:31:21.542Z,53.81
2022-07-25T22:33:50.967Z,53.51
2022-07-25T22:36:18.867Z,54.29
2022-07-25T22:38:47.188Z,54.33
2022-07-25T22:41:15.587Z,53.87
2022-07-25T22:43:57.788Z,54.00
2022-07-25T22:46:27.852Z,54.20
2022-07-25T22:48:58.144Z,53.98
2022-07-25T22:51:27.340Z,54.13
2022-07-25T22:53:55.384Z,53.68
2022-07-25T22:56:24.054Z,53.85
2022-07-25T22:58:52.051Z,53.58
2022-07-25T23:01:22.037Z,53.83
2022-07-25T23:03:50.998Z,53.77
2022-07-25T23:06:21.533Z,53.62
2022-07-25T23:08:50.048Z,54.00
2022-07-25T23:11:18.863Z,53.46
2022-07-25T23:13:46.841Z,53.29
2022-07-25T23:16:14.930Z,53.75
2022-07-25T23:18:42.875Z,53.93
2022-07-25T23:21:11.386Z,53.66
2022-07-25T23:23:41.424Z,54.37
2022-07-25T23:26:09.230Z,54.62
2022-07-25T23:28:37.444Z,54.11
2022-07-25T23:31:05.906Z,54.69
2022-07-25T23:33:33.831Z,55.19
2022-07-25T23:36:02.257Z,54.96
2022-07-25T23:38:30.151Z,55.32
2022-07-25T23:40:59.408Z,55.68
2022-07-25T23:43:56.228Z,56.23
2022-07-25T23:46:15.625Z,56.92
2022-07-25T23:48:46.180Z,57.15
2022-07-25T23:51:14.732Z,57.11
2022-07-25T23:53:42.901Z,56.71
2022-07-25T23:56:16.112Z,57.32
2022-07-25T23:58:47.558Z,56.67
